createdAt,value
2022-10-14T00:02:09.608Z,7.17
2022-10-14T00:05:36.502Z,8.85
2022-10-14T00:08:48.560Z,7.40
2022-10-14T00:12:12.545Z,6.80
2022-10-14T00:15:24.583Z,9.30
2022-10-14T00:18:36.571Z,7.57
2022-10-14T00:21:50.642Z,7.13
2022-10-14T00:25:03.607Z,8.80
2022-10-14T00:28:03.577Z,7.05
2022-10-14T00:31:19.618Z,7.45
2022-10-14T00:34:19.598Z,7.53
2022-10-14T00:37:49.624Z,7.20
2022-10-14T00:40:52.685Z,9.77
2022-10-14T00:44:17.632Z,9.10
2022-10-14T00:47:41.705Z,8.80
2022-10-14T00:51:06.651Z,8.00
2022-10-14T00:54:32.639Z,7.47
2022-10-14T00:57:56.667Z,8.70
2022-10-14T01:01:08.715Z,10.43
2022-10-14T01:04:20.737Z,7.60
2022-10-14T01:07:35.699Z,7.85
2022-10-14T01:11:02.769Z,7.15
2022-10-14T01:14:14.702Z,8.83
2022-10-14T01:17:38.737Z,8.50
2022-10-14T01:21:06.772Z,8.23
2022-10-14T01:24:34.735Z,8.10
2022-10-14T01:27:50.740Z,8.55
2022-10-14T01:31:16.826Z,8.17
2022-10-14T01:34:40.767Z,7.45
2022-10-14T01:38:04.822Z,8.05
2022-10-14T01:41:31.810Z,7.70
2022-10-14T01:44:55.972Z,8.40
2022-10-14T01:48:21.826Z,8.10
2022-10-14T01:51:45.831Z,8.13
2022-10-14T01:54:57.872Z,9.40
2022-10-14T01:58:21.867Z,8.90
2022-10-14T02:01:33.899Z,9.40
2022-10-14T02:05:00.901Z,7.95
2022-10-14T02:08:12.906Z,10.50
2022-10-14T02:11:37.919Z,9.80
2022-10-14T02:14:50.909Z,8.70
2022-10-14T02:18:15.930Z,9.07
2022-10-14T02:21:42.930Z,7.90
2022-10-14T02:25:07.054Z,7.53
2022-10-14T02:28:32.011Z,8.30
2022-10-14T02:31:55.978Z,7.70
2022-10-14T02:35:20.027Z,8.80
2022-10-14T02:38:51.012Z,7.80
2022-10-14T02:42:03.017Z,8.03
2022-10-14T02:45:18.082Z,8.20
2022-10-14T02:48:29.997Z,7.60
2022-10-14T02:51:42.000Z,7.65
2022-10-14T02:55:08.047Z,7.50
2022-10-14T02:58:08.035Z,7.30
2022-10-14T03:01:37.203Z,6.43
2022-10-14T03:04:44.044Z,6.95
2022-10-14T03:07:56.085Z,7.47
2022-10-14T03:11:22.084Z,6.90
2022-10-14T03:14:35.212Z,6.83
2022-10-14T03:18:00.176Z,6.83
2022-10-14T03:21:13.189Z,6.95
2022-10-14T03:24:25.138Z,8.20
2022-10-14T03:27:53.132Z,6.80
2022-10-14T03:31:06.155Z,7.20
2022-10-14T03:34:19.192Z,8.50
2022-10-14T03:37:31.168Z,8.60
2022-10-14T03:40:55.169Z,7.63
2022-10-14T03:44:21.174Z,7.40
2022-10-14T03:47:35.212Z,7.73
2022-10-14T03:50:47.162Z,9.83
2022-10-14T03:54:11.228Z,8.00
2022-10-14T03:57:23.214Z,8.83
2022-10-14T04:00:49.234Z,8.13
2022-10-14T04:04:02.256Z,8.40
2022-10-14T04:07:14.344Z,8.17
2022-10-14T04:10:39.302Z,10.10
2022-10-14T04:13:51.324Z,8.55
2022-10-14T04:17:18.331Z,8.33
2022-10-14T04:20:30.306Z,8.27
2022-10-14T04:23:57.301Z,8.30
2022-10-14T04:27:21.315Z,8.07
2022-10-14T04:30:46.330Z,8.40
2022-10-14T04:34:12.352Z,8.15
2022-10-14T04:37:25.358Z,8.50
2022-10-14T04:40:38.373Z,8.55
2022-10-14T04:43:50.375Z,8.00
2022-10-14T04:47:02.379Z,8.90
2022-10-14T04:50:28.405Z,9.07
2022-10-14T04:53:43.422Z,8.20
2022-10-14T04:56:56.380Z,7.73
2022-10-14T04:59:56.531Z,10.40
2022-10-14T05:03:09.402Z,9.77
2022-10-14T05:06:35.500Z,8.55
2022-10-14T05:09:56.211Z,8.07
2022-10-14T05:13:15.449Z,9.20
2022-10-14T05:16:40.468Z,8.33
2022-10-14T05:20:05.548Z,9.87
2022-10-14T05:23:31.486Z,8.03
2022-10-14T05:26:31.482Z,7.80
2022-10-14T05:29:44.530Z,7.80
2022-10-14T05:32:56.521Z,9.90
2022-10-14T05:36:22.520Z,8.90
2022-10-14T05:39:48.536Z,8.30
2022-10-14T05:43:00.571Z,10.57
2022-10-14T05:46:13.565Z,11.20
2022-10-14T05:49:27.593Z,9.20
2022-10-14T05:52:39.581Z,9.20
2022-10-14T05:56:08.614Z,7.95
2022-10-14T05:59:34.615Z,9.90
2022-10-14T06:02:46.666Z,9.43
2022-10-14T06:05:58.639Z,9.03
2022-10-14T06:09:22.657Z,9.63
2022-10-14T06:12:48.720Z,8.85
2022-10-14T06:16:12.678Z,8.50
2022-10-14T06:19:25.708Z,8.70
2022-10-14T06:22:25.711Z,8.30
2022-10-14T06:25:49.659Z,8.30
2022-10-14T06:29:03.783Z,8.80
2022-10-14T06:32:15.709Z,9.73
2022-10-14T06:35:27.844Z,10.63
2022-10-14T06:38:39.727Z,8.30
2022-10-14T06:41:39.779Z,8.80
2022-10-14T06:45:06.747Z,8.05
2022-10-14T06:48:06.774Z,10.27
2022-10-14T06:51:19.776Z,8.75
2022-10-14T06:54:35.562Z,8.80
2022-10-14T06:57:44.780Z,9.23
2022-10-14T07:04:09.809Z,9.50
2022-10-14T07:07:09.787Z,9.90
2022-10-14T07:10:34.879Z,9.10
2022-10-14T07:13:34.831Z,9.07
2022-10-14T07:17:02.826Z,8.60
2022-10-14T07:20:02.884Z,9.77
2022-10-14T07:23:14.881Z,9.83
2022-10-14T07:26:26.887Z,10.30
2022-10-14T07:29:38.925Z,12.05
2022-10-14T07:32:52.935Z,9.93
2022-10-14T07:36:05.937Z,10.83
2022-10-14T07:39:18.917Z,10.55
2022-10-14T07:42:30.918Z,10.70
2022-10-14T07:45:42.937Z,10.40
2022-10-14T07:49:09.975Z,10.17
2022-10-14T07:52:09.947Z,10.45
2022-10-14T07:55:23.007Z,10.43
2022-10-14T07:58:22.976Z,10.03
2022-10-14T08:01:36.049Z,10.43
2022-10-14T08:05:25.675Z,11.25
2022-10-14T08:08:02.032Z,11.07
2022-10-14T08:11:26.998Z,15.53
2022-10-14T08:14:39.022Z,12.90
2022-10-14T08:17:51.075Z,13.20
2022-10-14T08:21:06.002Z,12.35
2022-10-14T08:24:30.029Z,13.73
2022-10-14T08:27:30.077Z,15.17
2022-10-14T08:30:45.092Z,13.45
2022-10-14T08:33:45.162Z,13.63
2022-10-14T08:37:11.128Z,12.83
2022-10-14T08:40:11.092Z,15.40
2022-10-14T08:43:39.181Z,14.60
2022-10-14T08:46:52.315Z,15.70
2022-10-14T08:50:16.176Z,13.50
2022-10-14T08:53:45.126Z,13.15
2022-10-14T09:00:10.196Z,14.20
2022-10-14T09:03:36.173Z,14.55
2022-10-14T09:06:49.166Z,15.30
2022-10-14T09:10:15.183Z,15.23
2022-10-14T09:13:28.210Z,14.15
2022-10-14T09:16:54.303Z,14.25
2022-10-14T09:20:06.232Z,14.95
2022-10-14T09:23:36.236Z,13.50
2022-10-14T09:27:04.233Z,14.80
2022-10-14T09:30:28.240Z,14.57
2022-10-14T09:33:42.293Z,14.73
2022-10-14T09:37:05.358Z,15.00
2022-10-14T09:40:17.279Z,14.23
2022-10-14T09:43:42.255Z,14.27
2022-10-14T09:46:42.297Z,13.27
2022-10-14T09:50:06.313Z,14.50
2022-10-14T09:53:19.342Z,14.33
2022-10-14T09:56:50.305Z,13.65
2022-10-14T10:00:04.358Z,13.87
2022-10-14T10:03:28.401Z,14.27
2022-10-14T10:06:40.312Z,14.65
2022-10-14T10:09:52.417Z,14.10
2022-10-14T10:12:53.393Z,13.57
2022-10-14T10:16:22.372Z,13.13
2022-10-14T10:19:44.442Z,13.40
2022-10-14T10:22:56.493Z,13.90
2022-10-14T10:25:56.420Z,13.67
2022-10-14T10:29:20.476Z,13.15
2022-10-14T10:32:35.454Z,13.63
2022-10-14T10:36:00.496Z,13.23
2022-10-14T10:39:14.452Z,14.50
2022-10-14T10:42:38.502Z,14.63
2022-10-14T10:45:52.713Z,13.30
2022-10-14T10:49:18.615Z,15.25
2022-10-14T10:52:33.498Z,13.87
2022-10-14T10:55:58.598Z,13.45
2022-10-14T10:59:13.655Z,13.33
2022-10-14T11:02:46.574Z,13.30
2022-10-14T11:06:12.590Z,14.87
2022-10-14T11:09:43.090Z,17.73
2022-10-14T11:12:55.693Z,14.70
2022-10-14T11:16:19.662Z,14.25
2022-10-14T11:19:31.650Z,17.57
2022-10-14T11:23:01.696Z,16.00
2022-10-14T11:26:25.718Z,18.85
2022-10-14T11:29:54.628Z,15.70
2022-10-14T11:33:09.655Z,17.30
2022-10-14T11:36:36.881Z,15.27
2022-10-14T11:39:52.642Z,17.40
2022-10-14T11:43:20.720Z,16.10
2022-10-14T11:46:32.904Z,17.05
2022-10-14T11:49:57.736Z,15.90
2022-10-14T11:53:09.742Z,16.05
2022-10-14T11:56:36.710Z,16.13
2022-10-14T11:59:53.708Z,15.57
2022-10-14T12:03:12.842Z,16.43
2022-10-14T12:06:36.741Z,17.25
2022-10-14T12:09:49.785Z,17.30
2022-10-14T12:13:20.784Z,16.47
2022-10-14T12:16:44.791Z,16.55
2022-10-14T12:20:11.817Z,15.57
2022-10-14T12:23:23.809Z,14.30
2022-10-14T12:26:52.861Z,14.75
2022-10-14T12:30:07.848Z,14.05
2022-10-14T12:33:32.887Z,13.73
2022-10-14T12:36:54.874Z,13.50
2022-10-14T12:40:18.829Z,12.33
2022-10-14T12:43:39.838Z,13.45
2022-10-14T12:47:08.917Z,12.65
2022-10-14T12:50:20.897Z,13.23
2022-10-14T12:53:48.894Z,12.40
2022-10-14T12:57:03.901Z,12.37
2022-10-14T13:00:27.939Z,13.00
2022-10-14T13:03:42.916Z,11.40
2022-10-14T13:07:11.913Z,11.30
2022-10-14T13:10:21.938Z,12.15
2022-10-14T13:13:52.973Z,10.97
2022-10-14T13:17:21.225Z,10.73
2022-10-14T13:20:50.956Z,10.80
2022-10-14T13:24:04.970Z,11.90
2022-10-14T13:27:31.001Z,11.10
2022-10-14T13:30:58.019Z,10.43
2022-10-14T13:34:26.032Z,10.53
2022-10-14T13:37:46.259Z,10.40
2022-10-14T13:41:15.033Z,10.10
2022-10-14T13:44:41.093Z,10.30
2022-10-14T13:48:06.066Z,10.25
2022-10-14T13:51:31.719Z,10.57
2022-10-14T13:54:44.067Z,9.43
2022-10-14T13:58:11.984Z,10.33
2022-10-14T14:01:23.129Z,9.80
2022-10-14T14:04:48.157Z,10.27
2022-10-14T14:11:25.140Z,10.07
2022-10-14T14:14:42.154Z,11.37
2022-10-14T14:18:06.363Z,11.40
2022-10-14T14:21:20.172Z,10.93
2022-10-14T14:24:47.322Z,10.50
2022-10-14T14:27:59.222Z,11.50
2022-10-14T14:31:48.030Z,12.80
2022-10-14T14:34:41.239Z,10.80
2022-10-14T14:38:06.235Z,10.85
2022-10-14T14:41:28.202Z,11.00
2022-10-14T14:44:52.235Z,10.33
2022-10-14T14:48:06.379Z,11.47
2022-10-14T14:51:30.288Z,11.05
2022-10-14T14:54:42.266Z,10.73
2022-10-14T14:58:06.279Z,11.77
2022-10-14T15:01:18.292Z,10.90
2022-10-14T15:04:44.335Z,10.37
2022-10-14T15:08:09.286Z,10.67
2022-10-14T15:11:21.504Z,9.63
2022-10-14T15:14:36.314Z,9.47
2022-10-14T15:18:00.371Z,10.13
2022-10-14T15:21:14.298Z,9.80
2022-10-14T15:24:39.373Z,9.55
2022-10-14T15:27:54.326Z,9.55
2022-10-14T15:31:07.348Z,9.20
2022-10-14T15:34:07.354Z,9.60
2022-10-14T15:37:35.383Z,9.07
2022-10-14T15:40:47.379Z,9.35
2022-10-14T15:43:59.426Z,8.40
2022-10-14T15:47:17.083Z,8.43
2022-10-14T15:50:41.432Z,9.00
2022-10-14T15:53:55.416Z,9.37
2022-10-14T15:57:20.563Z,7.60
2022-10-14T16:00:21.486Z,8.00
2022-10-14T16:03:45.504Z,7.60
2022-10-14T16:06:48.477Z,7.65
2022-10-14T16:10:14.547Z,7.77
2022-10-14T16:13:14.498Z,7.47
2022-10-14T16:16:38.507Z,6.90
2022-10-14T16:19:38.507Z,6.57
2022-10-14T16:22:51.495Z,6.75
2022-10-14T16:26:05.519Z,7.30
2022-10-14T16:29:17.554Z,6.95
2022-10-14T16:32:18.615Z,6.20
2022-10-14T16:35:30.598Z,5.45
2022-10-14T16:38:30.588Z,6.40
2022-10-14T16:41:56.598Z,5.35
2022-10-14T16:44:56.560Z,5.30
2022-10-14T16:48:08.884Z,5.20
2022-10-14T16:51:21.603Z,5.40
2022-10-14T16:54:36.643Z,4.97
2022-10-14T16:57:50.609Z,4.73
2022-10-14T17:01:05.175Z,5.15
2022-10-14T17:04:03.621Z,5.25
2022-10-14T17:07:27.678Z,5.20
2022-10-14T17:10:27.740Z,4.65
2022-10-14T17:13:56.709Z,4.73
2022-10-14T17:16:56.653Z,4.90
2022-10-14T17:20:09.728Z,4.57
2022-10-14T17:23:10.535Z,4.85
2022-10-14T17:26:36.741Z,4.55
2022-10-14T17:29:50.705Z,4.30
2022-10-14T17:33:14.767Z,4.20
2022-10-14T17:36:26.748Z,4.50
2022-10-14T17:39:50.764Z,4.80
2022-10-14T17:42:51.779Z,4.25
2022-10-14T17:46:17.820Z,3.80
2022-10-14T17:49:29.762Z,4.00
2022-10-14T17:52:41.796Z,4.27
2022-10-14T17:55:56.821Z,4.00
2022-10-14T17:59:17.810Z,3.50
2022-10-14T18:02:31.890Z,4.20
2022-10-14T18:05:55.847Z,3.70
2022-10-14T18:09:19.848Z,3.87
2022-10-14T18:12:33.088Z,4.07
2022-10-14T18:15:32.921Z,3.67
2022-10-14T18:18:57.891Z,4.40
2022-10-14T18:21:57.874Z,3.77
2022-10-14T18:25:09.939Z,4.10
2022-10-14T18:28:09.975Z,3.60
2022-10-14T18:31:34.951Z,4.23
2022-10-14T18:34:48.921Z,4.15
2022-10-14T18:38:01.968Z,3.73
2022-10-14T18:41:16.968Z,5.40
2022-10-14T18:44:41.978Z,4.07
2022-10-14T18:47:42.015Z,3.87
2022-10-14T18:51:06.969Z,4.20
2022-10-14T18:54:19.013Z,4.27
2022-10-14T18:57:31.015Z,4.50
2022-10-14T19:00:31.996Z,4.30
2022-10-14T19:03:45.019Z,4.40
2022-10-14T19:06:59.048Z,4.60
2022-10-14T19:10:12.092Z,4.40
2022-10-14T19:13:12.036Z,4.87
2022-10-14T19:16:36.026Z,5.00
2022-10-14T19:19:36.121Z,5.37
2022-10-14T19:23:03.055Z,6.70
2022-10-14T19:29:39.080Z,5.00
2022-10-14T19:32:39.146Z,5.15
2022-10-14T19:35:54.169Z,4.50
2022-10-14T19:39:08.119Z,4.87
2022-10-14T19:42:20.082Z,5.20
2022-10-14T19:45:32.166Z,5.47
2022-10-14T19:48:45.154Z,5.35
2022-10-14T19:51:57.189Z,5.63
2022-10-14T19:55:23.153Z,5.50
2022-10-14T19:58:24.203Z,5.00
2022-10-14T20:01:48.265Z,5.30
2022-10-14T20:05:00.244Z,5.43
2022-10-14T20:08:12.275Z,4.75
2022-10-14T20:11:38.213Z,5.83
2022-10-14T20:14:44.248Z,5.30
2022-10-14T20:17:57.250Z,6.15
2022-10-14T20:20:57.243Z,4.90
2022-10-14T20:24:12.263Z,5.00
2022-10-14T20:27:26.375Z,5.07
2022-10-14T20:30:39.334Z,4.90
2022-10-14T20:33:39.358Z,5.50
2022-10-14T20:36:51.302Z,4.90
2022-10-14T20:39:51.343Z,5.65
2022-10-14T20:43:17.313Z,5.35
2022-10-14T20:46:17.598Z,4.70
2022-10-14T20:49:41.364Z,5.45
2022-10-14T20:52:53.332Z,5.30
2022-10-14T20:56:05.436Z,5.70
2022-10-14T20:59:21.528Z,7.40
2022-10-14T21:02:46.390Z,5.30
2022-10-14T21:06:01.775Z,5.80
2022-10-14T21:09:15.538Z,5.50
2022-10-14T21:12:15.408Z,5.75
2022-10-14T21:15:42.470Z,5.30
2022-10-14T21:18:42.458Z,5.57
2022-10-14T21:22:06.416Z,5.60
2022-10-14T21:25:06.451Z,5.95
2022-10-14T21:28:30.458Z,7.05
2022-10-14T21:31:44.483Z,5.80
2022-10-14T21:34:57.490Z,6.10
2022-10-14T21:37:57.553Z,5.83
2022-10-14T21:41:22.505Z,6.40
2022-10-14T21:44:35.553Z,6.00
2022-10-14T21:48:01.538Z,8.55
2022-10-14T21:51:13.618Z,6.40
2022-10-14T21:54:37.558Z,6.20
2022-10-14T21:57:37.560Z,6.30
2022-10-14T22:00:49.637Z,7.33
2022-10-14T22:04:18.620Z,7.13
2022-10-14T22:07:18.569Z,8.67
2022-10-14T22:10:36.623Z,7.10
2022-10-14T22:13:36.657Z,7.63
2022-10-14T22:17:00.619Z,10.10
2022-10-14T22:20:16.642Z,7.33
2022-10-14T22:23:40.613Z,7.15
2022-10-14T22:26:53.713Z,7.90
2022-10-14T22:30:05.639Z,6.90
2022-10-14T22:36:31.679Z,7.63
2022-10-14T22:39:31.685Z,7.10
2022-10-14T22:42:46.591Z,8.80
2022-10-14T22:45:43.929Z,7.40
2022-10-14T22:49:10.705Z,7.30
2022-10-14T22:52:24.907Z,8.15
2022-10-14T22:55:37.747Z,9.10
2022-10-14T22:58:37.750Z,8.80
2022-10-14T23:02:04.774Z,7.67
2022-10-14T23:05:04.898Z,8.33
2022-10-14T23:08:31.860Z,8.15
2022-10-14T23:11:43.787Z,8.53
2022-10-14T23:15:01.790Z,11.50
2022-10-14T23:18:01.830Z,10.00
2022-10-14T23:21:31.799Z,14.45
2022-10-14T23:24:45.826Z,10.03
2022-10-14T23:28:09.836Z,10.10
2022-10-14T23:31:09.851Z,11.25
2022-10-14T23:34:34.913Z,9.80
2022-10-14T23:37:46.857Z,11.03
2022-10-14T23:41:12.872Z,10.50
2022-10-14T23:44:12.912Z,9.50
2022-10-14T23:47:26.287Z,9.80
2022-10-14T23:50:25.911Z,9.03
2022-10-14T23:53:49.912Z,9.00
2022-10-14T23:57:03.962Z,10.07
